sensor_id;sensor_type;location;lat;lon;timestamp;P1;durP1;ratioP1;P2;durP2;ratioP2
10851;SDS011;5479;52.046;6.314;2023-04-25T00:00:46;14.23;;;4.23;;
10851;SDS011;5479;52.046;6.314;2023-04-25T00:03:15;13.17;;;4.13;;
10851;SDS011;5479;52.046;6.314;2023-04-25T00:05:43;10.10;;;3.50;;
10851;SDS011;5479;52.046;6.314;2023-04-25T00:08:11;8.53;;;3.80;;
10851;SDS011;5479;52.046;6.314;2023-04-25T00:10:41;9.43;;;4.00;;
10851;SDS011;5479;52.046;6.314;2023-04-25T00:13:09;11.53;;;3.80;;
10851;SDS011;5479;52.046;6.314;2023-04-25T00:15:39;12.23;;;3.60;;
10851;SDS011;5479;52.046;6.314;2023-04-25T00:18:08;9.47;;;4.07;;
10851;SDS011;5479;52.046;6.314;2023-04-25T00:20:37;12.17;;;3.80;;
10851;SDS011;5479;52.046;6.314;2023-04-25T00:23:05;10.97;;;3.50;;
10851;SDS011;5479;52.046;6.314;2023-04-25T00:25:35;11.13;;;3.67;;
10851;SDS011;5479;52.046;6.314;2023-04-25T00:28:04;8.23;;;3.43;;
10851;SDS011;5479;52.046;6.314;2023-04-25T00:30:32;9.40;;;3.40;;
10851;SDS011;5479;52.046;6.314;2023-04-25T00:33:01;13.00;;;4.03;;
10851;SDS011;5479;52.046;6.314;2023-04-25T00:35:28;9.20;;;3.73;;
10851;SDS011;5479;52.046;6.314;2023-04-25T00:37:57;10.50;;;3.73;;
10851;SDS011;5479;52.046;6.314;2023-04-25T00:40:25;9.07;;;3.40;;
10851;SDS011;5479;52.046;6.314;2023-04-25T00:42:53;8.53;;;3.57;;
10851;SDS011;5479;52.046;6.314;2023-04-25T00:45:23;12.17;;;3.53;;
10851;SDS011;5479;52.046;6.314;2023-04-25T00:47:56;8.63;;;3.30;;
10851;SDS011;5479;52.046;6.314;2023-04-25T00:50:24;15.03;;;4.53;;
10851;SDS011;5479;52.046;6.314;2023-04-25T00:52:53;10.13;;;3.70;;
10851;SDS011;5479;52.046;6.314;2023-04-25T00:55:21;10.27;;;3.67;;
10851;SDS011;5479;52.046;6.314;2023-04-25T00:57:49;10.53;;;3.70;;
10851;SDS011;5479;52.046;6.314;2023-04-25T01:00:19;9.77;;;3.77;;
10851;SDS011;5479;52.046;6.314;2023-04-25T01:02:49;10.47;;;4.43;;
10851;SDS011;5479;52.046;6.314;2023-04-25T01:05:17;10.90;;;3.80;;
10851;SDS011;5479;52.046;6.314;2023-04-25T01:07:47;11.00;;;4.00;;
10851;SDS011;5479;52.046;6.314;2023-04-25T01:10:16;8.87;;;3.97;;
10851;SDS011;5479;52.046;6.314;2023-04-25T01:12:44;10.00;;;3.40;;
10851;SDS011;5479;52.046;6.314;2023-04-25T01:15:12;9.47;;;3.60;;
10851;SDS011;5479;52.046;6.314;2023-04-25T01:17:43;13.40;;;3.60;;
10851;SDS011;5479;52.046;6.314;2023-04-25T01:20:15;8.97;;;3.40;;
10851;SDS011;5479;52.046;6.314;2023-04-25T01:22:45;8.20;;;3.57;;
10851;SDS011;5479;52.046;6.314;2023-04-25T01:25:16;9.53;;;3.80;;
10851;SDS011;5479;52.046;6.314;2023-04-25T01:27:44;10.10;;;3.80;;
10851;SDS011;5479;52.046;6.314;2023-04-25T01:30:16;8.83;;;4.30;;
10851;SDS011;5479;52.046;6.314;2023-04-25T01:32:45;9.17;;;3.93;;
10851;SDS011;5479;52.046;6.314;2023-04-25T01:35:15;10.97;;;3.73;;
10851;SDS011;5479;52.046;6.314;2023-04-25T01:37:45;10.90;;;3.93;;
10851;SDS011;5479;52.046;6.314;2023-04-25T01:40:17;10.83;;;4.30;;
10851;SDS011;5479;52.046;6.314;2023-04-25T01:42:46;13.87;;;4.97;;
10851;SDS011;5479;52.046;6.314;2023-04-25T01:45:16;9.57;;;3.60;;
10851;SDS011;5479;52.046;6.314;2023-04-25T01:47:48;10.47;;;4.27;;
10851;SDS011;5479;52.046;6.314;2023-04-25T01:50:17;9.33;;;4.90;;
10851;SDS011;5479;52.046;6.314;2023-04-25T01:52:48;12.67;;;4.63;;
10851;SDS011;5479;52.046;6.314;2023-04-25T01:55:17;9.83;;;4.10;;
10851;SDS011;5479;52.046;6.314;2023-04-25T01:57:45;10.80;;;3.93;;
10851;SDS011;5479;52.046;6.314;2023-04-25T02:00:14;11.37;;;4.10;;
10851;SDS011;5479;52.046;6.314;2023-04-25T02:02:43;13.40;;;4.57;;
10851;SDS011;5479;52.046;6.314;2023-04-25T02:05:11;13.27;;;4.70;;
10851;SDS011;5479;52.046;6.314;2023-04-25T02:07:39;14.37;;;4.63;;
10851;SDS011;5479;52.046;6.314;2023-04-25T02:10:09;10.93;;;4.33;;
10851;SDS011;5479;52.046;6.314;2023-04-25T02:12:40;9.57;;;4.23;;
10851;SDS011;5479;52.046;6.314;2023-04-25T02:15:08;13.87;;;4.33;;
10851;SDS011;5479;52.046;6.314;2023-04-25T02:17:37;13.73;;;4.97;;
10851;SDS011;5479;52.046;6.314;2023-04-25T02:20:06;17.57;;;4.40;;
10851;SDS011;5479;52.046;6.314;2023-04-25T02:22:35;15.67;;;4.80;;
10851;SDS011;5479;52.046;6.314;2023-04-25T02:25:04;16.03;;;4.97;;
10851;SDS011;5479;52.046;6.314;2023-04-25T02:27:36;12.23;;;4.63;;
10851;SDS011;5479;52.046;6.314;2023-04-25T02:30:05;12.80;;;4.80;;
10851;SDS011;5479;52.046;6.314;2023-04-25T02:32:35;13.37;;;4.73;;
10851;SDS011;5479;52.046;6.314;2023-04-25T02:35:03;13.83;;;5.03;;
10851;SDS011;5479;52.046;6.314;2023-04-25T02:37:32;14.63;;;4.70;;
10851;SDS011;5479;52.046;6.314;2023-04-25T02:40:02;11.87;;;4.10;;
10851;SDS011;5479;52.046;6.314;2023-04-25T02:42:31;12.13;;;4.30;;
10851;SDS011;5479;52.046;6.314;2023-04-25T02:45:02;12.83;;;4.57;;
10851;SDS011;5479;52.046;6.314;2023-04-25T02:47:30;14.90;;;5.13;;
10851;SDS011;5479;52.046;6.314;2023-04-25T02:50:01;12.33;;;5.13;;
10851;SDS011;5479;52.046;6.314;2023-04-25T02:52:31;14.47;;;4.87;;
10851;SDS011;5479;52.046;6.314;2023-04-25T02:55:00;15.60;;;5.20;;
10851;SDS011;5479;52.046;6.314;2023-04-25T02:57:29;13.77;;;5.00;;
10851;SDS011;5479;52.046;6.314;2023-04-25T02:59:58;12.23;;;4.80;;
10851;SDS011;5479;52.046;6.314;2023-04-25T03:02:27;11.33;;;4.40;;
10851;SDS011;5479;52.046;6.314;2023-04-25T03:04:55;14.77;;;4.80;;
10851;SDS011;5479;52.046;6.314;2023-04-25T03:07:25;12.63;;;4.60;;
10851;SDS011;5479;52.046;6.314;2023-04-25T03:09:53;16.57;;;4.87;;
10851;SDS011;5479;52.046;6.314;2023-04-25T03:12:23;13.03;;;4.33;;
10851;SDS011;5479;52.046;6.314;2023-04-25T03:14:51;13.47;;;4.17;;
10851;SDS011;5479;52.046;6.314;2023-04-25T03:17:20;12.47;;;4.43;;
10851;SDS011;5479;52.046;6.314;2023-04-25T03:19:53;12.17;;;4.50;;
10851;SDS011;5479;52.046;6.314;2023-04-25T03:22:21;10.90;;;4.10;;
10851;SDS011;5479;52.046;6.314;2023-04-25T03:24:51;12.10;;;4.20;;
10851;SDS011;5479;52.046;6.314;2023-04-25T03:27:20;12.87;;;4.43;;
10851;SDS011;5479;52.046;6.314;2023-04-25T03:29:50;14.70;;;4.70;;
10851;SDS011;5479;52.046;6.314;2023-04-25T03:32:18;11.63;;;3.60;;
10851;SDS011;5479;52.046;6.314;2023-04-25T03:34:46;13.20;;;4.40;;
10851;SDS011;5479;52.046;6.314;2023-04-25T03:37:18;13.20;;;4.10;;
10851;SDS011;5479;52.046;6.314;2023-04-25T03:39:45;11.90;;;4.10;;
10851;SDS011;5479;52.046;6.314;2023-04-25T03:42:13;9.73;;;3.93;;
10851;SDS011;5479;52.046;6.314;2023-04-25T03:44:41;11.60;;;4.20;;
10851;SDS011;5479;52.046;6.314;2023-04-25T03:47:12;11.37;;;3.70;;
10851;SDS011;5479;52.046;6.314;2023-04-25T03:49:41;14.93;;;3.97;;
10851;SDS011;5479;52.046;6.314;2023-04-25T03:52:09;11.53;;;3.67;;
10851;SDS011;5479;52.046;6.314;2023-04-25T03:54:38;10.40;;;3.87;;
10851;SDS011;5479;52.046;6.314;2023-04-25T03:57:07;12.57;;;4.20;;
10851;SDS011;5479;52.046;6.314;2023-04-25T03:59:35;12.70;;;4.30;;
10851;SDS011;5479;52.046;6.314;2023-04-25T04:02:09;11.73;;;4.30;;
10851;SDS011;5479;52.046;6.314;2023-04-25T04:04:37;12.90;;;4.83;;
10851;SDS011;5479;52.046;6.314;2023-04-25T04:07:06;13.43;;;4.57;;
10851;SDS011;5479;52.046;6.314;2023-04-25T04:09:38;14.47;;;5.07;;
10851;SDS011;5479;52.046;6.314;2023-04-25T04:12:06;12.47;;;4.93;;
10851;SDS011;5479;52.046;6.314;2023-04-25T04:14:34;15.80;;;4.73;;
10851;SDS011;5479;52.046;6.314;2023-04-25T04:17:03;8.87;;;4.03;;
10851;SDS011;5479;52.046;6.314;2023-04-25T04:19:32;10.13;;;4.50;;
10851;SDS011;5479;52.046;6.314;2023-04-25T04:22:00;12.17;;;4.63;;
10851;SDS011;5479;52.046;6.314;2023-04-25T04:24:28;11.00;;;4.10;;
10851;SDS011;5479;52.046;6.314;2023-04-25T04:26:56;14.33;;;4.60;;
10851;SDS011;5479;52.046;6.314;2023-04-25T04:29:26;11.20;;;4.00;;
10851;SDS011;5479;52.046;6.314;2023-04-25T04:31:54;9.87;;;4.00;;
10851;SDS011;5479;52.046;6.314;2023-04-25T04:34:22;15.20;;;5.03;;
10851;SDS011;5479;52.046;6.314;2023-04-25T04:36:53;10.13;;;3.60;;
10851;SDS011;5479;52.046;6.314;2023-04-25T04:39:22;8.90;;;3.90;;
10851;SDS011;5479;52.046;6.314;2023-04-25T04:41:49;9.57;;;3.70;;
10851;SDS011;5479;52.046;6.314;2023-04-25T04:44:20;7.43;;;3.17;;
10851;SDS011;5479;52.046;6.314;2023-04-25T04:46:49;7.90;;;3.27;;
10851;SDS011;5479;52.046;6.314;2023-04-25T04:49:19;9.20;;;2.90;;
10851;SDS011;5479;52.046;6.314;2023-04-25T04:51:49;9.23;;;3.47;;
10851;SDS011;5479;52.046;6.314;2023-04-25T04:54:17;6.00;;;3.13;;
10851;SDS011;5479;52.046;6.314;2023-04-25T04:56:45;6.43;;;2.47;;
10851;SDS011;5479;52.046;6.314;2023-04-25T04:59:14;5.70;;;2.67;;
10851;SDS011;5479;52.046;6.314;2023-04-25T05:01:44;8.17;;;3.50;;
10851;SDS011;5479;52.046;6.314;2023-04-25T05:04:14;10.13;;;3.20;;
10851;SDS011;5479;52.046;6.314;2023-04-25T05:06:43;10.43;;;3.70;;
10851;SDS011;5479;52.046;6.314;2023-04-25T05:09:16;9.33;;;3.63;;
10851;SDS011;5479;52.046;6.314;2023-04-25T05:11:45;10.37;;;3.53;;
10851;SDS011;5479;52.046;6.314;2023-04-25T05:14:13;8.57;;;3.90;;
10851;SDS011;5479;52.046;6.314;2023-04-25T05:16:44;8.67;;;4.20;;
10851;SDS011;5479;52.046;6.314;2023-04-25T05:19:12;10.67;;;3.87;;
10851;SDS011;5479;52.046;6.314;2023-04-25T05:21:41;8.00;;;3.70;;
10851;SDS011;5479;52.046;6.314;2023-04-25T05:24:11;11.40;;;3.90;;
10851;SDS011;5479;52.046;6.314;2023-04-25T05:26:39;9.53;;;3.70;;
10851;SDS011;5479;52.046;6.314;2023-04-25T05:29:07;8.60;;;3.60;;
10851;SDS011;5479;52.046;6.314;2023-04-25T05:31:35;14.83;;;4.43;;
10851;SDS011;5479;52.046;6.314;2023-04-25T05:34:07;11.30;;;4.30;;
10851;SDS011;5479;52.046;6.314;2023-04-25T05:36:35;12.23;;;4.57;;
10851;SDS011;5479;52.046;6.314;2023-04-25T05:39:03;10.30;;;4.00;;
10851;SDS011;5479;52.046;6.314;2023-04-25T05:41:35;13.33;;;4.83;;
10851;SDS011;5479;52.046;6.314;2023-04-25T05:44:03;9.53;;;3.83;;
10851;SDS011;5479;52.046;6.314;2023-04-25T05:46:31;7.10;;;3.40;;
10851;SDS011;5479;52.046;6.314;2023-04-25T05:48:59;13.93;;;4.17;;
10851;SDS011;5479;52.046;6.314;2023-04-25T05:51:28;8.60;;;4.03;;
10851;SDS011;5479;52.046;6.314;2023-04-25T05:53:59;9.57;;;3.70;;
10851;SDS011;5479;52.046;6.314;2023-04-25T05:56:27;8.83;;;3.73;;
10851;SDS011;5479;52.046;6.314;2023-04-25T05:58:55;7.30;;;3.07;;
10851;SDS011;5479;52.046;6.314;2023-04-25T06:01:24;11.27;;;3.47;;
10851;SDS011;5479;52.046;6.314;2023-04-25T06:03:53;9.23;;;3.47;;
10851;SDS011;5479;52.046;6.314;2023-04-25T06:06:21;7.97;;;3.33;;
10851;SDS011;5479;52.046;6.314;2023-04-25T06:08:51;9.03;;;3.30;;
10851;SDS011;5479;52.046;6.314;2023-04-25T06:11:20;5.03;;;2.40;;
10851;SDS011;5479;52.046;6.314;2023-04-25T06:13:48;6.73;;;2.40;;
10851;SDS011;5479;52.046;6.314;2023-04-25T06:16:16;7.27;;;2.30;;
10851;SDS011;5479;52.046;6.314;2023-04-25T06:18:44;7.23;;;2.47;;
10851;SDS011;5479;52.046;6.314;2023-04-25T06:21:12;5.03;;;2.10;;
10851;SDS011;5479;52.046;6.314;2023-04-25T06:23:40;6.70;;;2.07;;
10851;SDS011;5479;52.046;6.314;2023-04-25T06:26:10;3.93;;;2.00;;
10851;SDS011;5479;52.046;6.314;2023-04-25T06:28:38;8.17;;;2.47;;
10851;SDS011;5479;52.046;6.314;2023-04-25T06:31:06;5.63;;;2.23;;
10851;SDS011;5479;52.046;6.314;2023-04-25T06:33:35;5.87;;;2.00;;
10851;SDS011;5479;52.046;6.314;2023-04-25T06:36:03;5.87;;;1.90;;
10851;SDS011;5479;52.046;6.314;2023-04-25T06:38:33;5.40;;;1.80;;
10851;SDS011;5479;52.046;6.314;2023-04-25T06:41:02;5.70;;;2.03;;
10851;SDS011;5479;52.046;6.314;2023-04-25T06:43:32;6.27;;;2.00;;
10851;SDS011;5479;52.046;6.314;2023-04-25T06:46:01;4.83;;;1.87;;
10851;SDS011;5479;52.046;6.314;2023-04-25T06:48:30;7.07;;;2.03;;
10851;SDS011;5479;52.046;6.314;2023-04-25T06:50:58;6.77;;;1.80;;
10851;SDS011;5479;52.046;6.314;2023-04-25T06:53:26;4.70;;;2.27;;
10851;SDS011;5479;52.046;6.314;2023-04-25T06:55:57;6.23;;;2.30;;
10851;SDS011;5479;52.046;6.314;2023-04-25T06:58:25;4.57;;;1.93;;
10851;SDS011;5479;52.046;6.314;2023-04-25T07:00:56;6.20;;;2.20;;
10851;SDS011;5479;52.046;6.314;2023-04-25T07:03:25;6.13;;;2.03;;
10851;SDS011;5479;52.046;6.314;2023-04-25T07:05:54;4.83;;;1.93;;
10851;SDS011;5479;52.046;6.314;2023-04-25T07:08:26;5.13;;;1.80;;
10851;SDS011;5479;52.046;6.314;2023-04-25T07:10:55;7.97;;;2.30;;
10851;SDS011;5479;52.046;6.314;2023-04-25T07:13:24;7.63;;;1.90;;
10851;SDS011;5479;52.046;6.314;2023-04-25T07:15:53;6.27;;;2.17;;
10851;SDS011;5479;52.046;6.314;2023-04-25T07:18:23;7.87;;;2.20;;
10851;SDS011;5479;52.046;6.314;2023-04-25T07:20:51;6.50;;;1.97;;
10851;SDS011;5479;52.046;6.314;2023-04-25T07:23:20;6.57;;;2.20;;
10851;SDS011;5479;52.046;6.314;2023-04-25T07:25:49;7.03;;;2.23;;
10851;SDS011;5479;52.046;6.314;2023-04-25T07:28:19;7.33;;;2.33;;
10851;SDS011;5479;52.046;6.314;2023-04-25T07:30:47;6.33;;;2.33;;
10851;SDS011;5479;52.046;6.314;2023-04-25T07:33:15;8.63;;;2.37;;
10851;SDS011;5479;52.046;6.314;2023-04-25T07:35:45;5.17;;;2.07;;
10851;SDS011;5479;52.046;6.314;2023-04-25T07:38:15;6.70;;;1.90;;
10851;SDS011;5479;52.046;6.314;2023-04-25T07:40:44;7.30;;;2.10;;
10851;SDS011;5479;52.046;6.314;2023-04-25T07:43:12;5.70;;;2.17;;
10851;SDS011;5479;52.046;6.314;2023-04-25T07:45:42;4.90;;;1.50;;
10851;SDS011;5479;52.046;6.314;2023-04-25T07:48:10;6.37;;;1.90;;
10851;SDS011;5479;52.046;6.314;2023-04-25T07:50:38;7.37;;;2.00;;
10851;SDS011;5479;52.046;6.314;2023-04-25T07:53:08;7.37;;;2.17;;
10851;SDS011;5479;52.046;6.314;2023-04-25T07:55:36;5.83;;;1.83;;
10851;SDS011;5479;52.046;6.314;2023-04-25T07:58:06;6.53;;;2.03;;
10851;SDS011;5479;52.046;6.314;2023-04-25T08:00:34;9.83;;;2.17;;
10851;SDS011;5479;52.046;6.314;2023-04-25T08:03:05;6.47;;;1.90;;
10851;SDS011;5479;52.046;6.314;2023-04-25T08:05:34;7.53;;;2.13;;
10851;SDS011;5479;52.046;6.314;2023-04-25T08:08:02;8.60;;;2.20;;
10851;SDS011;5479;52.046;6.314;2023-04-25T08:10:35;6.57;;;2.67;;
10851;SDS011;5479;52.046;6.314;2023-04-25T08:13:03;7.87;;;2.73;;
10851;SDS011;5479;52.046;6.314;2023-04-25T08:15:31;8.30;;;2.13;;
10851;SDS011;5479;52.046;6.314;2023-04-25T08:18:00;6.67;;;1.93;;
10851;SDS011;5479;52.046;6.314;2023-04-25T08:20:27;5.87;;;2.20;;
10851;SDS011;5479;52.046;6.314;2023-04-25T08:22:56;6.80;;;2.37;;
10851;SDS011;5479;52.046;6.314;2023-04-25T08:25:24;7.13;;;2.10;;
10851;SDS011;5479;52.046;6.314;2023-04-25T08:27:55;8.10;;;2.67;;
10851;SDS011;5479;52.046;6.314;2023-04-25T08:30:23;6.63;;;2.10;;
10851;SDS011;5479;52.046;6.314;2023-04-25T08:32:51;7.33;;;2.60;;
10851;SDS011;5479;52.046;6.314;2023-04-25T08:35:19;7.23;;;2.20;;
10851;SDS011;5479;52.046;6.314;2023-04-25T08:37:47;5.53;;;1.70;;
10851;SDS011;5479;52.046;6.314;2023-04-25T08:40:17;3.60;;;1.20;;
10851;SDS011;5479;52.046;6.314;2023-04-25T08:42:52;1.73;;;1.00;;
10851;SDS011;5479;52.046;6.314;2023-04-25T08:45:22;2.90;;;1.50;;
10851;SDS011;5479;52.046;6.314;2023-04-25T08:47:51;2.50;;;1.00;;
10851;SDS011;5479;52.046;6.314;2023-04-25T08:50:21;2.73;;;1.30;;
10851;SDS011;5479;52.046;6.314;2023-04-25T08:52:52;3.40;;;1.50;;
10851;SDS011;5479;52.046;6.314;2023-04-25T08:55:22;4.17;;;1.47;;
10851;SDS011;5479;52.046;6.314;2023-04-25T08:57:51;3.57;;;1.47;;
10851;SDS011;5479;52.046;6.314;2023-04-25T09:00:22;4.43;;;1.47;;
10851;SDS011;5479;52.046;6.314;2023-04-25T09:02:50;4.47;;;1.73;;
10851;SDS011;5479;52.046;6.314;2023-04-25T09:05:20;4.37;;;1.33;;
10851;SDS011;5479;52.046;6.314;2023-04-25T09:07:49;5.50;;;2.27;;
10851;SDS011;5479;52.046;6.314;2023-04-25T09:10:17;4.33;;;1.73;;
10851;SDS011;5479;52.046;6.314;2023-04-25T09:13:01;3.73;;;1.70;;
10851;SDS011;5479;52.046;6.314;2023-04-25T09:15:31;4.90;;;1.70;;
10851;SDS011;5479;52.046;6.314;2023-04-25T09:17:59;4.07;;;1.60;;
10851;SDS011;5479;52.046;6.314;2023-04-25T09:20:27;5.93;;;1.57;;
10851;SDS011;5479;52.046;6.314;2023-04-25T09:23:02;5.13;;;1.57;;
10851;SDS011;5479;52.046;6.314;2023-04-25T09:25:33;3.37;;;1.67;;
10851;SDS011;5479;52.046;6.314;2023-04-25T09:28:05;4.77;;;1.50;;
10851;SDS011;5479;52.046;6.314;2023-04-25T09:30:36;6.73;;;1.70;;
10851;SDS011;5479;52.046;6.314;2023-04-25T09:33:04;3.90;;;1.50;;
10851;SDS011;5479;52.046;6.314;2023-04-25T09:35:34;5.07;;;1.90;;
10851;SDS011;5479;52.046;6.314;2023-04-25T09:38:07;6.37;;;1.70;;
10851;SDS011;5479;52.046;6.314;2023-04-25T09:40:39;5.10;;;1.80;;
10851;SDS011;5479;52.046;6.314;2023-04-25T09:43:10;4.73;;;1.40;;
10851;SDS011;5479;52.046;6.314;2023-04-25T09:45:49;5.93;;;1.77;;
10851;SDS011;5479;52.046;6.314;2023-04-25T09:48:18;6.07;;;1.90;;
10851;SDS011;5479;52.046;6.314;2023-04-25T09:50:51;4.27;;;1.60;;
10851;SDS011;5479;52.046;6.314;2023-04-25T09:53:31;6.43;;;2.00;;
10851;SDS011;5479;52.046;6.314;2023-04-25T09:55:59;4.90;;;1.80;;
10851;SDS011;5479;52.046;6.314;2023-04-25T09:58:28;3.73;;;1.13;;
10851;SDS011;5479;52.046;6.314;2023-04-25T10:00:59;3.57;;;1.40;;
10851;SDS011;5479;52.046;6.314;2023-04-25T10:03:29;3.00;;;1.10;;
10851;SDS011;5479;52.046;6.314;2023-04-25T10:05:58;2.40;;;1.20;;
10851;SDS011;5479;52.046;6.314;2023-04-25T10:08:29;4.03;;;1.10;;
10851;SDS011;5479;52.046;6.314;2023-04-25T10:11:00;2.17;;;1.20;;
10851;SDS011;5479;52.046;6.314;2023-04-25T10:13:29;2.87;;;1.10;;
10851;SDS011;5479;52.046;6.314;2023-04-25T10:16:00;2.37;;;1.20;;
10851;SDS011;5479;52.046;6.314;2023-04-25T10:18:31;3.43;;;1.07;;
10851;SDS011;5479;52.046;6.314;2023-04-25T10:21:00;3.20;;;1.40;;
10851;SDS011;5479;52.046;6.314;2023-04-25T10:23:30;3.00;;;1.37;;
10851;SDS011;5479;52.046;6.314;2023-04-25T10:25:58;3.83;;;1.30;;
10851;SDS011;5479;52.046;6.314;2023-04-25T10:28:27;6.77;;;1.60;;
10851;SDS011;5479;52.046;6.314;2023-04-25T10:31:00;3.17;;;1.47;;
10851;SDS011;5479;52.046;6.314;2023-04-25T10:33:32;4.53;;;1.50;;
10851;SDS011;5479;52.046;6.314;2023-04-25T10:36:08;6.07;;;1.70;;
10851;SDS011;5479;52.046;6.314;2023-04-25T10:38:37;5.13;;;1.57;;
10851;SDS011;5479;52.046;6.314;2023-04-25T10:41:06;4.77;;;1.63;;
10851;SDS011;5479;52.046;6.314;2023-04-25T10:43:36;6.07;;;2.07;;
10851;SDS011;5479;52.046;6.314;2023-04-25T10:46:17;8.53;;;1.80;;
10851;SDS011;5479;52.046;6.314;2023-04-25T10:48:47;4.53;;;1.63;;
10851;SDS011;5479;52.046;6.314;2023-04-25T10:51:17;6.93;;;1.60;;
10851;SDS011;5479;52.046;6.314;2023-04-25T10:53:47;4.10;;;1.73;;
10851;SDS011;5479;52.046;6.314;2023-04-25T10:56:26;5.37;;;1.60;;
10851;SDS011;5479;52.046;6.314;2023-04-25T10:59:04;5.60;;;1.73;;
10851;SDS011;5479;52.046;6.314;2023-04-25T11:01:37;8.93;;;2.10;;
10851;SDS011;5479;52.046;6.314;2023-04-25T11:04:18;5.17;;;1.63;;
10851;SDS011;5479;52.046;6.314;2023-04-25T11:06:51;6.80;;;2.23;;
10851;SDS011;5479;52.046;6.314;2023-04-25T11:09:32;4.93;;;1.80;;
10851;SDS011;5479;52.046;6.314;2023-04-25T11:12:01;4.10;;;1.60;;
10851;SDS011;5479;52.046;6.314;2023-04-25T11:14:29;5.07;;;1.50;;
10851;SDS011;5479;52.046;6.314;2023-04-25T11:17:01;4.67;;;1.93;;
10851;SDS011;5479;52.046;6.314;2023-04-25T11:19:29;6.10;;;1.80;;
10851;SDS011;5479;52.046;6.314;2023-04-25T11:21:58;2.97;;;1.40;;
10851;SDS011;5479;52.046;6.314;2023-04-25T11:24:27;5.03;;;1.60;;
10851;SDS011;5479;52.046;6.314;2023-04-25T11:26:56;6.33;;;1.90;;
10851;SDS011;5479;52.046;6.314;2023-04-25T11:29:26;5.60;;;1.40;;
10851;SDS011;5479;52.046;6.314;2023-04-25T11:31:54;4.43;;;1.20;;
10851;SDS011;5479;52.046;6.314;2023-04-25T11:34:25;4.17;;;1.30;;
10851;SDS011;5479;52.046;6.314;2023-04-25T11:36:56;4.30;;;1.20;;
10851;SDS011;5479;52.046;6.314;2023-04-25T11:39:26;4.53;;;1.80;;
10851;SDS011;5479;52.046;6.314;2023-04-25T11:41:55;4.87;;;1.60;;
10851;SDS011;5479;52.046;6.314;2023-04-25T11:44:23;4.17;;;1.40;;
10851;SDS011;5479;52.046;6.314;2023-04-25T11:46:51;6.27;;;1.73;;
10851;SDS011;5479;52.046;6.314;2023-04-25T11:49:18;3.60;;;1.53;;
10851;SDS011;5479;52.046;6.314;2023-04-25T11:51:49;5.57;;;1.40;;
10851;SDS011;5479;52.046;6.314;2023-04-25T11:54:17;4.53;;;1.60;;
10851;SDS011;5479;52.046;6.314;2023-04-25T11:56:46;4.53;;;1.63;;
10851;SDS011;5479;52.046;6.314;2023-04-25T11:59:14;4.53;;;1.53;;
10851;SDS011;5479;52.046;6.314;2023-04-25T12:01:47;4.23;;;1.73;;
10851;SDS011;5479;52.046;6.314;2023-04-25T12:04:17;3.47;;;1.37;;
10851;SDS011;5479;52.046;6.314;2023-04-25T12:06:46;5.47;;;1.60;;
10851;SDS011;5479;52.046;6.314;2023-04-25T12:09:17;3.40;;;1.27;;
10851;SDS011;5479;52.046;6.314;2023-04-25T12:11:48;5.87;;;1.47;;
10851;SDS011;5479;52.046;6.314;2023-04-25T12:14:21;6.03;;;1.60;;
10851;SDS011;5479;52.046;6.314;2023-04-25T12:16:54;5.33;;;1.90;;
10851;SDS011;5479;52.046;6.314;2023-04-25T12:19:23;5.53;;;1.50;;
10851;SDS011;5479;52.046;6.314;2023-04-25T12:21:52;5.07;;;1.87;;
10851;SDS011;5479;52.046;6.314;2023-04-25T12:24:22;4.50;;;1.70;;
10851;SDS011;5479;52.046;6.314;2023-04-25T12:26:52;4.00;;;1.67;;
10851;SDS011;5479;52.046;6.314;2023-04-25T12:29:22;6.00;;;1.67;;
10851;SDS011;5479;52.046;6.314;2023-04-25T12:31:51;4.73;;;1.47;;
10851;SDS011;5479;52.046;6.314;2023-04-25T12:34:21;3.80;;;1.50;;
10851;SDS011;5479;52.046;6.314;2023-04-25T12:36:50;5.17;;;1.93;;
10851;SDS011;5479;52.046;6.314;2023-04-25T12:39:19;4.83;;;1.73;;
10851;SDS011;5479;52.046;6.314;2023-04-25T12:41:51;4.27;;;1.50;;
10851;SDS011;5479;52.046;6.314;2023-04-25T12:44:40;4.53;;;1.50;;
10851;SDS011;5479;52.046;6.314;2023-04-25T12:47:28;4.67;;;1.70;;
10851;SDS011;5479;52.046;6.314;2023-04-25T12:49:56;7.57;;;2.10;;
10851;SDS011;5479;52.046;6.314;2023-04-25T12:52:24;7.17;;;2.07;;
10851;SDS011;5479;52.046;6.314;2023-04-25T12:54:52;4.53;;;1.60;;
10851;SDS011;5479;52.046;6.314;2023-04-25T12:57:21;4.57;;;1.67;;
10851;SDS011;5479;52.046;6.314;2023-04-25T12:59:50;3.63;;;1.40;;
10851;SDS011;5479;52.046;6.314;2023-04-25T13:02:18;5.07;;;1.40;;
10851;SDS011;5479;52.046;6.314;2023-04-25T13:04:46;4.23;;;1.30;;
10851;SDS011;5479;52.046;6.314;2023-04-25T13:07:14;4.73;;;1.70;;
10851;SDS011;5479;52.046;6.314;2023-04-25T13:09:42;5.80;;;1.77;;
10851;SDS011;5479;52.046;6.314;2023-04-25T13:12:10;5.50;;;1.50;;
10851;SDS011;5479;52.046;6.314;2023-04-25T13:14:39;5.27;;;1.70;;
10851;SDS011;5479;52.046;6.314;2023-04-25T13:17:07;6.20;;;1.60;;
10851;SDS011;5479;52.046;6.314;2023-04-25T13:19:36;2.70;;;1.50;;
10851;SDS011;5479;52.046;6.314;2023-04-25T13:22:05;4.27;;;1.50;;
10851;SDS011;5479;52.046;6.314;2023-04-25T13:24:33;3.07;;;1.30;;
10851;SDS011;5479;52.046;6.314;2023-04-25T13:27:01;4.87;;;1.40;;
10851;SDS011;5479;52.046;6.314;2023-04-25T13:29:29;4.07;;;1.43;;
10851;SDS011;5479;52.046;6.314;2023-04-25T13:31:59;3.90;;;1.30;;
10851;SDS011;5479;52.046;6.314;2023-04-25T13:34:27;3.33;;;1.47;;
10851;SDS011;5479;52.046;6.314;2023-04-25T13:36:56;5.30;;;1.43;;
10851;SDS011;5479;52.046;6.314;2023-04-25T13:39:24;4.27;;;1.47;;
10851;SDS011;5479;52.046;6.314;2023-04-25T13:41:51;2.97;;;1.43;;
10851;SDS011;5479;52.046;6.314;2023-04-25T13:44:19;4.43;;;1.30;;
10851;SDS011;5479;52.046;6.314;2023-04-25T13:46:47;5.33;;;1.50;;
10851;SDS011;5479;52.046;6.314;2023-04-25T13:49:17;6.37;;;1.53;;
10851;SDS011;5479;52.046;6.314;2023-04-25T13:51:45;4.13;;;1.90;;
10851;SDS011;5479;52.046;6.314;2023-04-25T13:54:13;4.20;;;1.67;;
10851;SDS011;5479;52.046;6.314;2023-04-25T13:56:41;3.80;;;1.30;;
10851;SDS011;5479;52.046;6.314;2023-04-25T13:59:09;4.40;;;1.63;;
10851;SDS011;5479;52.046;6.314;2023-04-25T14:01:37;6.00;;;1.80;;
10851;SDS011;5479;52.046;6.314;2023-04-25T14:04:05;8.97;;;6.83;;
10851;SDS011;5479;52.046;6.314;2023-04-25T14:06:35;4.67;;;1.80;;
10851;SDS011;5479;52.046;6.314;2023-04-25T14:09:04;5.33;;;1.93;;
10851;SDS011;5479;52.046;6.314;2023-04-25T14:11:33;5.67;;;1.80;;
10851;SDS011;5479;52.046;6.314;2023-04-25T14:14:01;4.20;;;1.53;;
10851;SDS011;5479;52.046;6.314;2023-04-25T14:16:29;4.60;;;1.40;;
10851;SDS011;5479;52.046;6.314;2023-04-25T14:18:57;7.70;;;1.73;;
10851;SDS011;5479;52.046;6.314;2023-04-25T14:21:26;6.73;;;2.87;;
10851;SDS011;5479;52.046;6.314;2023-04-25T14:23:56;7.30;;;2.17;;
10851;SDS011;5479;52.046;6.314;2023-04-25T14:26:24;3.90;;;1.43;;
10851;SDS011;5479;52.046;6.314;2023-04-25T14:28:53;4.93;;;1.60;;
10851;SDS011;5479;52.046;6.314;2023-04-25T14:31:22;4.20;;;1.60;;
10851;SDS011;5479;52.046;6.314;2023-04-25T14:33:50;4.03;;;1.77;;
10851;SDS011;5479;52.046;6.314;2023-04-25T14:36:18;5.00;;;1.83;;
10851;SDS011;5479;52.046;6.314;2023-04-25T14:38:58;4.73;;;1.60;;
10851;SDS011;5479;52.046;6.314;2023-04-25T14:41:28;5.13;;;1.60;;
10851;SDS011;5479;52.046;6.314;2023-04-25T14:43:56;3.60;;;1.43;;
10851;SDS011;5479;52.046;6.314;2023-04-25T14:46:26;4.57;;;1.60;;
10851;SDS011;5479;52.046;6.314;2023-04-25T14:48:54;4.67;;;1.53;;
10851;SDS011;5479;52.046;6.314;2023-04-25T14:51:22;4.27;;;1.60;;
10851;SDS011;5479;52.046;6.314;2023-04-25T14:53:50;3.00;;;1.50;;
10851;SDS011;5479;52.046;6.314;2023-04-25T14:56:20;4.07;;;1.73;;
10851;SDS011;5479;52.046;6.314;2023-04-25T14:58:48;5.43;;;1.50;;
10851;SDS011;5479;52.046;6.314;2023-04-25T15:01:16;5.03;;;1.77;;
10851;SDS011;5479;52.046;6.314;2023-04-25T15:03:45;4.10;;;1.50;;
10851;SDS011;5479;52.046;6.314;2023-04-25T15:06:13;2.43;;;1.20;;
10851;SDS011;5479;52.046;6.314;2023-04-25T15:08:41;4.07;;;1.17;;
10851;SDS011;5479;52.046;6.314;2023-04-25T15:11:08;4.10;;;1.17;;